createdAt,value
2022-09-24T00:00:42.204Z,10.83
2022-09-24T00:01:42.239Z,10.82
2022-09-24T00:02:42.225Z,10.80
2022-09-24T00:03:42.185Z,10.82
2022-09-24T00:04:42.153Z,10.80
2022-09-24T00:05:42.134Z,10.79
2022-09-24T00:06:42.125Z,10.77
2022-09-24T00:07:42.116Z,10.76
2022-09-24T00:08:42.128Z,10.75
2022-09-24T00:09:42.086Z,10.75
2022-09-24T00:10:42.065Z,10.75
2022-09-24T00:11:42.065Z,10.72
2022-09-24T00:12:42.042Z,10.72
2022-09-24T00:13:42.038Z,10.72
2022-09-24T00:14:42.015Z,10.72
2022-09-24T00:15:42.037Z,10.72
2022-09-24T00:16:42.025Z,10.75
2022-09-24T00:17:41.976Z,10.75
2022-09-24T00:18:41.974Z,10.71
2022-09-24T00:19:41.936Z,10.69
2022-09-24T00:20:41.933Z,10.68
2022-09-24T00:21:41.925Z,10.67
2022-09-24T00:22:41.905Z,10.68
2022-09-24T00:23:41.915Z,10.69
2022-09-24T00:24:41.877Z,10.71
2022-09-24T00:25:41.865Z,10.71
2022-09-24T00:26:41.857Z,10.72
2022-09-24T00:27:41.846Z,10.72
2022-09-24T00:28:41.825Z,10.72
2022-09-24T00:29:41.815Z,10.71
2022-09-24T00:30:41.794Z,10.71
2022-09-24T00:31:41.872Z,10.69
2022-09-24T00:32:41.765Z,10.68
2022-09-24T00:33:41.778Z,10.67
2022-09-24T00:34:41.745Z,10.68
2022-09-24T00:35:41.735Z,10.68
2022-09-24T00:36:41.713Z,10.67
2022-09-24T00:37:41.705Z,10.64
2022-09-24T00:38:41.714Z,10.61
2022-09-24T00:39:41.680Z,10.58
2022-09-24T00:40:41.706Z,10.55
2022-09-24T00:41:41.646Z,10.53
2022-09-24T00:42:41.636Z,10.51
2022-09-24T00:43:41.646Z,10.53
2022-09-24T00:44:41.657Z,10.53
2022-09-24T00:45:41.598Z,10.53
2022-09-24T00:46:41.653Z,10.55
2022-09-24T00:47:41.576Z,10.57
2022-09-24T00:48:41.567Z,10.55
2022-09-24T00:49:41.547Z,10.57
2022-09-24T00:50:41.524Z,10.58
2022-09-24T00:51:41.515Z,10.55
2022-09-24T00:52:41.496Z,10.57
2022-09-24T00:53:41.508Z,10.57
2022-09-24T00:54:41.474Z,10.57
2022-09-24T00:55:41.488Z,10.57
2022-09-24T00:56:41.447Z,10.57
2022-09-24T00:57:41.436Z,10.55
2022-09-24T00:58:41.436Z,10.53
2022-09-24T00:59:41.450Z,10.53
2022-09-24T01:00:41.428Z,10.51
2022-09-24T01:01:41.451Z,10.51
2022-09-24T01:02:41.357Z,10.49
2022-09-24T01:03:41.348Z,10.49
2022-09-24T01:04:41.356Z,10.48
2022-09-24T01:05:41.326Z,10.46
2022-09-24T01:06:41.306Z,10.43
2022-09-24T01:07:41.298Z,10.42
2022-09-24T01:08:41.279Z,10.42
2022-09-24T01:09:41.287Z,10.39
2022-09-24T01:10:41.258Z,10.38
2022-09-24T01:11:41.247Z,10.33
2022-09-24T01:12:41.224Z,10.27
2022-09-24T01:13:43.390Z,10.25
2022-09-24T01:14:41.226Z,10.23
2022-09-24T01:15:41.197Z,10.24
2022-09-24T01:16:41.236Z,10.25
2022-09-24T01:17:41.167Z,10.25
2022-09-24T01:18:41.139Z,10.24
2022-09-24T01:19:41.148Z,10.20
2022-09-24T01:20:41.119Z,10.13
2022-09-24T01:21:41.107Z,10.09
2022-09-24T01:22:41.079Z,10.05
2022-09-24T01:23:43.808Z,10.02
2022-09-24T01:24:42.078Z,10.00
2022-09-24T01:25:41.061Z,9.95
2022-09-24T01:26:41.038Z,9.94
2022-09-24T01:27:41.029Z,9.92
2022-09-24T01:28:41.006Z,9.95
2022-09-24T01:29:41.021Z,9.94
2022-09-24T01:30:42.397Z,9.92
2022-09-24T01:31:41.037Z,9.92
2022-09-24T01:32:40.958Z,9.90
2022-09-24T01:33:40.946Z,9.90
2022-09-24T01:34:40.958Z,9.90
2022-09-24T01:35:40.909Z,9.94
2022-09-24T01:36:40.910Z,9.95
2022-09-24T01:37:40.895Z,9.95
2022-09-24T01:38:40.880Z,9.94
2022-09-24T01:39:40.886Z,9.88
2022-09-24T01:40:40.881Z,9.87
2022-09-24T01:41:40.848Z,9.85
2022-09-24T01:42:40.830Z,9.82
2022-09-24T01:43:40.818Z,9.77
2022-09-24T01:44:40.819Z,9.74
2022-09-24T01:45:40.801Z,9.73
2022-09-24T01:46:40.850Z,9.74
2022-09-24T01:47:40.771Z,9.76
2022-09-24T01:48:40.758Z,9.81
2022-09-24T01:49:40.755Z,9.82
2022-09-24T01:50:40.728Z,9.84
2022-09-24T01:51:40.709Z,9.84
2022-09-24T01:52:40.699Z,9.85
2022-09-24T01:53:40.686Z,9.87
2022-09-24T01:54:40.689Z,9.87
2022-09-24T01:55:40.656Z,9.87
2022-09-24T01:56:40.668Z,9.88
2022-09-24T01:57:40.639Z,9.87
2022-09-24T01:58:40.618Z,9.88
2022-09-24T01:59:40.617Z,9.88
2022-09-24T02:00:40.658Z,9.88
2022-09-24T02:01:40.610Z,9.87
2022-09-24T02:02:40.571Z,9.82
2022-09-24T02:03:40.540Z,9.85
2022-09-24T02:04:40.559Z,9.85
2022-09-24T02:05:40.529Z,9.85
2022-09-24T02:06:40.501Z,9.85
2022-09-24T02:07:40.499Z,9.84
2022-09-24T02:08:40.490Z,9.81
2022-09-24T02:09:40.499Z,9.81
2022-09-24T02:10:40.457Z,9.81
2022-09-24T02:11:40.448Z,9.81
2022-09-24T02:12:40.436Z,9.80
2022-09-24T02:13:40.419Z,9.82
2022-09-24T02:14:40.420Z,9.81
2022-09-24T02:15:40.490Z,9.82
2022-09-24T02:16:40.410Z,9.80
2022-09-24T02:17:40.369Z,9.74
2022-09-24T02:18:40.341Z,9.70
2022-09-24T02:19:40.369Z,9.67
2022-09-24T02:20:40.332Z,9.59
2022-09-24T02:21:40.318Z,9.55
2022-09-24T02:22:40.298Z,9.52
2022-09-24T02:23:40.290Z,9.49
2022-09-24T02:24:40.298Z,9.45
2022-09-24T02:25:40.260Z,9.44
2022-09-24T02:26:40.249Z,9.39
2022-09-24T02:27:40.241Z,9.37
2022-09-24T02:28:40.216Z,9.34
2022-09-24T02:29:40.245Z,9.33
2022-09-24T02:30:40.221Z,9.34
2022-09-24T02:31:40.251Z,9.34
2022-09-24T02:32:40.170Z,9.37
2022-09-24T02:33:40.160Z,9.39
2022-09-24T02:34:40.163Z,9.42
2022-09-24T02:35:40.122Z,9.44
2022-09-24T02:36:40.110Z,9.44
2022-09-24T02:37:40.119Z,9.44
2022-09-24T02:38:40.099Z,9.40
2022-09-24T02:39:40.102Z,9.34
2022-09-24T02:40:40.160Z,9.29
2022-09-24T02:41:40.118Z,9.26
2022-09-24T02:42:40.050Z,9.21
2022-09-24T02:43:40.020Z,9.22
2022-09-24T02:44:40.027Z,9.22
2022-09-24T02:45:40.002Z,9.26
2022-09-24T02:46:40.020Z,9.22
2022-09-24T02:47:39.969Z,9.26
2022-09-24T02:48:39.951Z,9.27
2022-09-24T02:49:39.961Z,9.27
2022-09-24T02:50:39.929Z,9.30
2022-09-24T02:51:39.923Z,9.29
2022-09-24T02:52:39.910Z,9.26
2022-09-24T02:53:39.893Z,9.26
2022-09-24T02:54:39.880Z,9.22
2022-09-24T02:55:39.870Z,9.21
2022-09-24T02:56:39.854Z,9.18
2022-09-24T02:57:39.840Z,9.16
2022-09-24T02:58:39.838Z,9.13
2022-09-24T02:59:39.834Z,9.11
2022-09-24T03:00:39.798Z,9.12
2022-09-24T03:01:39.933Z,9.13
2022-09-24T03:02:39.948Z,9.15
2022-09-24T03:03:39.761Z,9.18
2022-09-24T03:04:39.738Z,9.18
2022-09-24T03:05:39.758Z,9.16
2022-09-24T03:06:39.714Z,9.13
2022-09-24T03:07:39.709Z,9.15
2022-09-24T03:08:39.681Z,9.15
2022-09-24T03:09:39.679Z,9.16
2022-09-24T03:10:39.701Z,9.19
2022-09-24T03:11:39.660Z,9.19
2022-09-24T03:12:39.638Z,9.22
2022-09-24T03:16:01.131Z,9.31
2022-09-24T03:17:01.031Z,9.31
2022-09-24T03:18:01.026Z,9.31
2022-09-24T03:19:01.017Z,9.33
2022-09-24T03:20:01.013Z,9.33
2022-09-24T03:21:01.007Z,9.34
2022-09-24T03:22:00.978Z,9.33
2022-09-24T03:23:00.967Z,9.36
2022-09-24T03:24:01.079Z,9.39
2022-09-24T03:25:00.938Z,9.40
2022-09-24T03:26:00.937Z,9.40
2022-09-24T03:27:00.928Z,9.42
2022-09-24T03:28:00.898Z,9.44
2022-09-24T03:29:00.887Z,9.42
2022-09-24T03:30:00.890Z,9.42
2022-09-24T03:31:01.068Z,9.39
2022-09-24T03:32:00.859Z,9.39
2022-09-24T03:33:00.857Z,9.39
2022-09-24T03:34:00.948Z,9.39
2022-09-24T03:35:00.831Z,9.37
2022-09-24T03:36:00.830Z,9.39
2022-09-24T03:37:00.802Z,9.37
2022-09-24T03:38:00.785Z,9.34
2022-09-24T03:39:00.770Z,9.31
2022-09-24T03:40:00.759Z,9.30
2022-09-24T03:41:00.766Z,9.27
2022-09-24T03:42:00.732Z,9.27
2022-09-24T03:43:00.719Z,9.24
2022-09-24T03:44:00.711Z,9.19
2022-09-24T03:45:00.700Z,9.16
2022-09-24T03:46:00.810Z,9.13
2022-09-24T03:47:00.672Z,9.13
2022-09-24T03:48:00.653Z,9.15
2022-09-24T03:49:00.757Z,9.16
2022-09-24T03:50:00.641Z,9.18
2022-09-24T03:51:00.636Z,9.21
2022-09-24T03:52:00.601Z,9.26
2022-09-24T03:53:00.593Z,9.26
2022-09-24T03:54:00.582Z,9.26
2022-09-24T03:55:00.570Z,9.27
2022-09-24T03:56:00.570Z,9.27
2022-09-24T03:57:00.541Z,9.26
2022-09-24T03:58:00.520Z,9.22
2022-09-24T03:59:00.511Z,9.18
2022-09-24T04:00:00.501Z,9.16
2022-09-24T04:01:00.501Z,9.09
2022-09-24T04:02:00.527Z,9.08
2022-09-24T04:03:00.534Z,9.08
2022-09-24T04:04:00.462Z,9.09
2022-09-24T04:05:00.451Z,9.11
2022-09-24T04:06:00.430Z,9.12
2022-09-24T04:07:00.415Z,9.15
2022-09-24T04:08:00.392Z,9.18
2022-09-24T04:09:00.387Z,9.18
2022-09-24T04:10:00.374Z,9.22
2022-09-24T04:11:00.377Z,9.26
2022-09-24T04:12:00.343Z,9.27
2022-09-24T04:13:00.343Z,9.29
2022-09-24T04:14:00.325Z,9.26
2022-09-24T04:15:00.319Z,9.26
2022-09-24T04:16:00.388Z,9.27
2022-09-24T04:17:00.283Z,9.29
2022-09-24T04:18:00.261Z,9.27
2022-09-24T04:19:00.268Z,9.27
2022-09-24T04:20:00.243Z,9.24
2022-09-24T04:21:00.241Z,9.19
2022-09-24T04:22:00.217Z,9.19
2022-09-24T04:23:00.202Z,9.13
2022-09-24T04:24:00.191Z,9.11
2022-09-24T04:25:00.181Z,9.08
2022-09-24T04:26:00.172Z,9.02
2022-09-24T04:27:00.141Z,8.97
2022-09-24T04:28:00.140Z,8.97
2022-09-24T04:29:00.130Z,8.96
2022-09-24T04:30:00.122Z,8.95
2022-09-24T04:31:00.217Z,8.97
2022-09-24T04:32:00.103Z,8.97
2022-09-24T04:33:00.072Z,8.99
2022-09-24T04:34:00.065Z,8.99
2022-09-24T04:35:04.166Z,9.00
2022-09-24T04:36:01.046Z,9.03
2022-09-24T04:37:00.014Z,9.09
2022-09-24T04:37:59.995Z,9.11
2022-09-24T04:38:59.992Z,9.15
2022-09-24T04:39:59.982Z,9.16
2022-09-24T04:40:59.997Z,9.18
2022-09-24T04:41:59.951Z,9.21
2022-09-24T04:42:59.941Z,9.19
2022-09-24T04:43:59.922Z,9.21
2022-09-24T04:44:59.915Z,9.22
2022-09-24T04:45:59.927Z,9.24
2022-09-24T04:46:59.977Z,9.27
2022-09-24T04:47:59.869Z,9.30
2022-09-24T04:48:59.863Z,9.31
2022-09-24T04:49:59.844Z,9.33
2022-09-24T04:50:59.853Z,9.36
2022-09-24T04:51:59.822Z,9.36
2022-09-24T04:52:59.813Z,9.37
2022-09-24T04:53:59.802Z,9.36
2022-09-24T04:54:59.793Z,9.34
2022-09-24T04:55:59.788Z,9.33
2022-09-24T04:56:59.752Z,9.33
2022-09-24T04:57:59.762Z,9.31
2022-09-24T04:58:59.732Z,9.30
2022-09-24T04:59:59.715Z,9.31
2022-09-24T05:00:59.727Z,9.31
2022-09-24T05:01:59.862Z,9.27
2022-09-24T05:02:59.732Z,9.24
2022-09-24T05:03:59.666Z,9.19
2022-09-24T05:04:59.656Z,9.16
2022-09-24T05:05:59.653Z,9.09
2022-09-24T05:06:59.624Z,9.08
2022-09-24T05:07:59.615Z,9.08
2022-09-24T05:08:59.614Z,9.08
2022-09-24T05:09:59.582Z,9.08
2022-09-24T05:10:59.592Z,9.08
2022-09-24T05:11:59.561Z,9.05
2022-09-24T05:12:59.551Z,9.09
2022-09-24T05:13:59.532Z,9.09
2022-09-24T05:14:59.522Z,9.08
2022-09-24T05:15:59.595Z,9.09
2022-09-24T05:16:59.494Z,9.08
2022-09-24T05:17:59.481Z,9.09
2022-09-24T05:18:59.471Z,9.08
2022-09-24T05:19:59.510Z,9.08
2022-09-24T05:20:59.463Z,9.11
2022-09-24T05:21:59.431Z,9.09
2022-09-24T05:22:59.410Z,9.12
2022-09-24T05:23:59.390Z,9.13
2022-09-24T05:24:59.392Z,9.12
2022-09-24T05:25:59.381Z,9.11
2022-09-24T05:26:59.384Z,9.08
2022-09-24T05:27:59.354Z,9.05
2022-09-24T05:28:59.342Z,9.05
2022-09-24T05:29:59.323Z,9.08
2022-09-24T05:30:59.380Z,9.11
2022-09-24T05:31:59.309Z,9.12
2022-09-24T05:32:59.292Z,9.13
2022-09-24T05:33:59.262Z,9.16
2022-09-24T05:34:59.263Z,9.19
2022-09-24T05:35:59.253Z,9.21
2022-09-24T05:36:59.252Z,9.24
2022-09-24T05:37:59.222Z,9.26
2022-09-24T05:38:59.213Z,9.27
2022-09-24T05:39:59.203Z,9.27
2022-09-24T05:40:59.242Z,9.33
2022-09-24T05:41:59.178Z,9.31
2022-09-24T05:42:59.153Z,9.34
2022-09-24T05:43:59.140Z,9.36
2022-09-24T05:44:59.132Z,9.37
2022-09-24T05:45:59.102Z,9.40
2022-09-24T05:46:59.157Z,9.40
2022-09-24T05:47:59.090Z,9.40
2022-09-24T05:48:59.074Z,9.44
2022-09-24T05:49:59.052Z,9.45
2022-09-24T05:50:59.142Z,9.45
2022-09-24T05:51:59.051Z,9.48
2022-09-24T05:52:59.010Z,9.51
2022-09-24T05:53:59.013Z,9.51
2022-09-24T05:54:59.003Z,9.54
2022-09-24T05:55:58.986Z,9.55
2022-09-24T05:56:58.991Z,9.55
2022-09-24T05:57:58.963Z,9.55
2022-09-24T05:58:58.940Z,9.56
2022-09-24T05:59:58.934Z,9.58
2022-09-24T06:00:58.925Z,9.63
2022-09-24T06:01:58.954Z,9.63
2022-09-24T06:02:58.952Z,9.66
2022-09-24T06:03:58.874Z,9.64
2022-09-24T06:04:58.877Z,9.66
2022-09-24T06:05:58.854Z,9.67
2022-09-24T06:06:58.853Z,9.69
2022-09-24T06:07:58.833Z,9.72
2022-09-24T06:08:58.813Z,9.72
2022-09-24T06:09:58.816Z,9.70
2022-09-24T06:10:58.783Z,9.73
2022-09-24T06:11:58.793Z,9.73
2022-09-24T06:12:58.770Z,9.72
2022-09-24T06:13:58.762Z,9.73
2022-09-24T06:14:58.733Z,9.73
2022-09-24T06:15:58.750Z,9.73
2022-09-24T06:16:58.724Z,9.73
2022-09-24T06:17:58.702Z,9.76
2022-09-24T06:18:58.680Z,9.77
2022-09-24T06:19:58.663Z,9.80
2022-09-24T06:20:58.653Z,9.80
2022-09-24T06:21:58.655Z,9.82
2022-09-24T06:22:58.623Z,9.82
2022-09-24T06:23:58.614Z,9.85
2022-09-24T06:24:58.592Z,9.84
2022-09-24T06:25:58.598Z,9.85
2022-09-24T06:26:58.581Z,9.85
2022-09-24T06:27:58.563Z,9.87
2022-09-24T06:29:03.767Z,9.90
2022-09-24T06:29:59.526Z,9.91
2022-09-24T06:30:58.598Z,9.91
2022-09-24T06:31:58.533Z,9.91
2022-09-24T06:32:58.493Z,9.91
2022-09-24T06:33:58.492Z,9.92
2022-09-24T06:34:59.365Z,9.94
2022-09-24T06:35:58.460Z,9.95
2022-09-24T06:36:58.452Z,10.00
2022-09-24T06:37:58.421Z,10.00
2022-09-24T06:38:58.413Z,10.03
2022-09-24T06:39:58.407Z,10.03
2022-09-24T06:40:58.448Z,10.06
2022-09-24T06:41:58.395Z,10.06
2022-09-24T06:42:58.365Z,10.07
2022-09-24T06:43:58.369Z,10.09
2022-09-24T06:44:58.333Z,10.12
2022-09-24T06:45:58.325Z,10.13
2022-09-24T06:46:58.387Z,10.15
2022-09-24T06:47:58.298Z,10.18
2022-09-24T06:48:58.272Z,10.21
2022-09-24T06:49:58.262Z,10.24
2022-09-24T06:50:58.243Z,10.25
2022-09-24T06:51:58.255Z,10.27
2022-09-24T06:52:58.224Z,10.27
2022-09-24T06:53:58.213Z,10.30
2022-09-24T06:54:58.194Z,10.27
2022-09-24T06:55:58.192Z,10.28
2022-09-24T06:56:58.184Z,10.30
2022-09-24T06:57:58.155Z,10.33
2022-09-24T06:58:58.145Z,10.34
2022-09-24T06:59:58.142Z,10.38
2022-09-24T07:00:58.179Z,10.41
2022-09-24T07:01:58.148Z,10.42
2022-09-24T07:02:58.091Z,10.46
2022-09-24T07:03:58.084Z,10.57
2022-09-24T07:04:58.064Z,10.68
2022-09-24T07:05:58.063Z,10.84
2022-09-24T07:06:58.054Z,11.05
2022-09-24T07:07:58.025Z,11.26
2022-09-24T07:08:58.003Z,11.44
2022-09-24T07:09:57.993Z,11.49
2022-09-24T07:10:57.983Z,11.56
2022-09-24T07:11:58.002Z,11.67
2022-09-24T07:12:57.952Z,11.77
2022-09-24T07:13:57.951Z,11.80
2022-09-24T07:14:57.915Z,11.85
2022-09-24T07:15:57.984Z,11.96
2022-09-24T07:16:57.914Z,12.07
2022-09-24T07:17:57.895Z,12.15
2022-09-24T07:18:57.882Z,12.21
2022-09-24T07:19:57.856Z,12.23
2022-09-24T07:20:57.852Z,12.25
2022-09-24T07:21:57.855Z,12.23
2022-09-24T07:22:57.827Z,12.15
2022-09-24T07:23:58.658Z,12.08
2022-09-24T07:24:57.835Z,12.00
2022-09-24T07:25:57.799Z,11.91
2022-09-24T07:26:57.788Z,11.88
2022-09-24T07:27:57.763Z,11.83
2022-09-24T07:28:57.751Z,11.80
2022-09-24T07:29:57.725Z,11.76
2022-09-24T07:30:57.856Z,11.74
2022-09-24T07:31:57.703Z,11.73
2022-09-24T07:32:57.696Z,11.71
2022-09-24T07:33:57.677Z,11.73
2022-09-24T07:34:57.645Z,11.71
2022-09-24T07:35:57.647Z,11.70
2022-09-24T07:36:57.654Z,11.67
2022-09-24T07:37:57.624Z,11.67
2022-09-24T07:38:57.585Z,11.65
2022-09-24T07:39:57.596Z,11.65
2022-09-24T07:40:57.684Z,11.65
2022-09-24T07:41:57.563Z,11.67
2022-09-24T07:42:57.556Z,11.67
2022-09-24T07:43:57.544Z,11.65
2022-09-24T07:44:57.524Z,11.65
2022-09-24T07:45:57.516Z,11.65
2022-09-24T07:46:57.572Z,11.65
2022-09-24T07:47:57.533Z,11.67
2022-09-24T07:48:57.475Z,11.67
2022-09-24T07:49:57.477Z,11.65
2022-09-24T07:50:57.436Z,11.65
2022-09-24T07:51:57.445Z,11.63
2022-09-24T07:52:57.469Z,11.63
2022-09-24T07:53:57.407Z,11.65
2022-09-24T07:54:57.396Z,11.63
2022-09-24T07:55:57.387Z,11.67
2022-09-24T07:56:57.367Z,11.65
2022-09-24T07:57:57.390Z,11.62
2022-09-24T07:58:57.346Z,11.63
2022-09-24T07:59:57.336Z,11.63
2022-09-24T08:00:57.317Z,11.63
2022-09-24T08:01:57.355Z,11.62
2022-09-24T08:02:57.306Z,11.91
2022-09-24T08:03:57.338Z,12.00
2022-09-24T08:04:57.267Z,12.02
2022-09-24T08:05:57.259Z,12.03
2022-09-24T08:06:57.237Z,12.05
2022-09-24T08:07:57.246Z,12.15
2022-09-24T08:08:57.217Z,12.43
2022-09-24T08:09:57.197Z,12.69
2022-09-24T08:10:57.187Z,12.99
2022-09-24T08:11:57.178Z,13.23
2022-09-24T08:12:57.194Z,13.46
2022-09-24T08:13:57.136Z,13.45
2022-09-24T08:14:57.135Z,13.31
2022-09-24T08:15:57.198Z,13.21
2022-09-24T08:16:57.117Z,13.16
2022-09-24T08:17:57.108Z,13.11
2022-09-24T08:18:57.077Z,12.99
2022-09-24T08:19:57.240Z,12.88
2022-09-24T08:20:57.057Z,12.81
2022-09-24T08:21:57.039Z,12.70
2022-09-24T08:22:57.048Z,12.69
2022-09-24T08:23:57.017Z,12.65
2022-09-24T08:24:57.000Z,12.63
2022-09-24T08:25:57.003Z,12.62
2022-09-24T08:26:56.988Z,12.62
2022-09-24T08:27:56.957Z,12.58
2022-09-24T08:28:56.947Z,12.58
2022-09-24T08:29:56.929Z,12.58
2022-09-24T08:30:56.967Z,12.50
2022-09-24T08:31:56.927Z,12.48
2022-09-24T08:32:56.886Z,12.50
2022-09-24T08:33:56.918Z,12.50
2022-09-24T08:34:56.867Z,12.50
2022-09-24T08:35:56.878Z,12.51
2022-09-24T08:36:56.837Z,12.51
2022-09-24T08:37:56.847Z,12.51
2022-09-24T08:38:56.813Z,12.51
2022-09-24T08:39:56.808Z,12.51
2022-09-24T08:40:56.835Z,12.50
2022-09-24T08:41:56.778Z,12.50
2022-09-24T08:42:56.787Z,12.48
2022-09-24T08:43:56.748Z,12.48
2022-09-24T08:44:56.737Z,12.51
2022-09-24T08:45:56.799Z,12.51
2022-09-24T08:46:56.739Z,12.47
2022-09-24T08:47:56.718Z,12.48
2022-09-24T08:48:56.680Z,12.51
2022-09-24T08:49:56.676Z,12.54
2022-09-24T08:50:56.649Z,12.55
2022-09-24T08:51:56.638Z,12.57
2022-09-24T08:52:56.647Z,12.61
2022-09-24T08:53:56.620Z,12.68
2022-09-24T08:54:56.619Z,12.70
2022-09-24T08:55:56.598Z,12.72
2022-09-24T08:56:56.549Z,12.75
2022-09-24T08:57:56.589Z,12.81
2022-09-24T08:58:56.560Z,12.81
2022-09-24T08:59:56.539Z,12.83
2022-09-24T09:00:56.526Z,12.81
2022-09-24T09:01:56.600Z,12.76
2022-09-24T09:02:56.574Z,12.80
2022-09-24T09:03:56.491Z,12.84
2022-09-24T09:04:56.477Z,12.90
2022-09-24T09:05:56.474Z,12.98
2022-09-24T09:06:56.450Z,13.03
2022-09-24T09:07:56.460Z,13.12
2022-09-24T09:09:11.838Z,13.17
2022-09-24T09:09:57.408Z,13.21
2022-09-24T09:10:56.397Z,13.28
2022-09-24T09:11:56.392Z,13.36
2022-09-24T09:12:56.380Z,13.43
2022-09-24T09:13:56.348Z,13.47
2022-09-24T09:14:56.360Z,13.55
2022-09-24T09:15:56.392Z,13.61
2022-09-24T09:16:56.311Z,13.70
2022-09-24T09:17:56.322Z,13.73
2022-09-24T09:18:56.280Z,13.79
2022-09-24T09:19:56.278Z,13.80
2022-09-24T09:20:56.261Z,13.82
2022-09-24T09:21:56.251Z,13.76
2022-09-24T09:22:56.249Z,13.79
2022-09-24T09:23:56.227Z,13.85
2022-09-24T09:25:01.163Z,13.89
2022-09-24T09:25:57.201Z,13.91
2022-09-24T09:26:56.180Z,13.93
2022-09-24T09:27:56.190Z,13.94
2022-09-24T09:28:56.150Z,13.93
2022-09-24T09:29:56.212Z,13.94
2022-09-24T09:30:56.180Z,13.93
2022-09-24T09:31:56.776Z,13.94
2022-09-24T09:32:56.122Z,14.00
2022-09-24T09:33:56.099Z,14.04
2022-09-24T09:34:56.075Z,14.07
2022-09-24T09:35:56.082Z,14.15
2022-09-24T09:36:56.058Z,14.18
2022-09-24T09:37:56.060Z,14.25
2022-09-24T09:38:56.022Z,14.25
2022-09-24T09:39:56.020Z,14.30
2022-09-24T09:40:56.035Z,14.33
2022-09-24T09:41:55.994Z,14.40
2022-09-24T09:42:55.982Z,14.45
2022-09-24T09:43:55.972Z,14.52
2022-09-24T09:44:55.951Z,14.59
2022-09-24T09:45:55.933Z,14.66
2022-09-24T09:46:56.001Z,14.70
2022-09-24T09:47:55.930Z,14.74
2022-09-24T09:48:55.894Z,14.78
2022-09-24T09:49:55.873Z,14.82
2022-09-24T09:50:55.859Z,14.85
2022-09-24T09:51:55.853Z,14.82
2022-09-24T09:52:55.852Z,14.81
2022-09-24T09:53:55.824Z,14.73
2022-09-24T09:54:55.802Z,14.68
2022-09-24T09:55:55.792Z,14.71
2022-09-24T09:56:55.784Z,14.74
2022-09-24T09:57:55.790Z,14.86
2022-09-24T09:58:55.754Z,14.86
2022-09-24T09:59:55.743Z,14.85
2022-09-24T10:00:55.723Z,14.85
2022-09-24T10:01:55.935Z,14.85
2022-09-24T10:02:55.886Z,14.82
2022-09-24T10:03:55.703Z,14.87
2022-09-24T10:04:55.684Z,14.89
2022-09-24T10:05:55.655Z,14.94
2022-09-24T10:06:55.654Z,15.02
2022-09-24T10:07:55.653Z,15.08
2022-09-24T10:08:55.624Z,15.14
2022-09-24T10:09:55.613Z,15.23
2022-09-24T10:10:55.615Z,15.30
2022-09-24T10:11:55.584Z,15.36
2022-09-24T10:12:55.584Z,15.45
2022-09-24T10:13:55.553Z,15.44
2022-09-24T10:14:55.545Z,15.45
2022-09-24T10:15:55.617Z,15.45
2022-09-24T10:16:55.514Z,15.47
2022-09-24T10:17:55.529Z,15.48
2022-09-24T10:18:55.495Z,15.52
2022-09-24T10:19:55.475Z,15.59
2022-09-24T10:20:55.473Z,15.66
2022-09-24T10:21:55.445Z,15.72
2022-09-24T10:22:55.455Z,15.73
2022-09-24T10:23:55.424Z,15.76
2022-09-24T10:24:55.416Z,15.78
2022-09-24T10:25:55.397Z,15.83
2022-09-24T10:26:55.385Z,15.85
2022-09-24T10:27:55.385Z,15.87
2022-09-24T10:28:55.355Z,15.94
2022-09-24T10:29:55.346Z,16.02
2022-09-24T10:30:55.361Z,16.08
2022-09-24T10:31:55.316Z,16.09
2022-09-24T10:32:55.325Z,16.10
2022-09-24T10:33:55.294Z,16.08
2022-09-24T10:34:55.275Z,16.08
2022-09-24T10:35:55.265Z,16.05
2022-09-24T10:36:55.256Z,16.02
2022-09-24T10:37:55.247Z,16.03
2022-09-24T10:38:55.246Z,15.99
2022-09-24T10:39:55.241Z,15.94
2022-09-24T10:40:55.266Z,15.91
2022-09-24T10:41:55.186Z,15.91
2022-09-24T10:42:55.177Z,15.88
2022-09-24T10:43:55.176Z,15.83
2022-09-24T10:44:55.145Z,15.83
2022-09-24T10:45:55.134Z,15.80
2022-09-24T10:46:55.172Z,15.76
2022-09-24T10:47:55.117Z,15.75
2022-09-24T10:48:55.145Z,15.70
2022-09-24T10:49:55.078Z,15.70
2022-09-24T10:50:55.139Z,15.67
2022-09-24T10:51:55.046Z,15.66
2022-09-24T10:52:55.037Z,15.66
2022-09-24T10:53:55.037Z,15.63
2022-09-24T10:54:55.007Z,15.65
2022-09-24T10:55:55.004Z,15.67
2022-09-24T10:56:54.991Z,15.65
2022-09-24T10:57:54.978Z,15.65
2022-09-24T10:58:54.978Z,15.65
2022-09-24T10:59:54.939Z,15.66
2022-09-24T11:00:54.919Z,15.63
2022-09-24T11:01:54.953Z,15.63
2022-09-24T11:02:54.977Z,15.65
2022-09-24T11:03:54.887Z,15.69
2022-09-24T11:04:54.878Z,15.84
2022-09-24T11:05:54.869Z,15.99
2022-09-24T11:06:54.848Z,16.13
2022-09-24T11:07:54.838Z,16.26
2022-09-24T11:08:54.839Z,16.37
2022-09-24T11:09:54.808Z,16.49
2022-09-24T11:10:54.802Z,16.59
2022-09-24T11:11:54.789Z,16.73
2022-09-24T11:12:54.776Z,16.86
2022-09-24T11:13:54.770Z,16.95
2022-09-24T11:14:54.750Z,17.05
2022-09-24T11:15:54.782Z,17.12
2022-09-24T11:16:54.717Z,17.24
2022-09-24T11:17:54.711Z,17.30
2022-09-24T11:18:54.730Z,17.32
2022-09-24T11:19:54.679Z,17.38
2022-09-24T11:20:54.675Z,17.38
2022-09-24T11:21:54.652Z,17.38
2022-09-24T11:22:54.639Z,17.39
2022-09-24T11:23:54.630Z,17.38
2022-09-24T11:24:54.609Z,17.37
2022-09-24T11:25:54.599Z,17.32
2022-09-24T11:26:54.587Z,17.31
2022-09-24T11:27:54.578Z,17.28
2022-09-24T11:28:54.570Z,17.27
2022-09-24T11:29:54.552Z,17.35
2022-09-24T11:30:54.610Z,17.37
2022-09-24T11:31:54.521Z,17.42
2022-09-24T11:32:54.511Z,17.46
2022-09-24T11:33:54.511Z,17.44
2022-09-24T11:34:54.480Z,17.47
2022-09-24T11:35:54.461Z,17.50
2022-09-24T11:36:54.451Z,17.53
2022-09-24T11:37:54.431Z,17.49
2022-09-24T11:38:54.440Z,17.50
2022-09-24T11:39:54.403Z,17.52
2022-09-24T11:40:54.470Z,17.54
2022-09-24T11:41:54.380Z,17.54
2022-09-24T11:42:54.361Z,17.53
2022-09-24T11:43:54.372Z,17.47
2022-09-24T11:44:54.342Z,17.42
2022-09-24T11:45:54.321Z,17.38
2022-09-24T11:46:54.399Z,17.37
2022-09-24T11:47:54.332Z,17.38
2022-09-24T11:48:54.312Z,17.38
2022-09-24T11:49:54.345Z,17.39
2022-09-24T11:50:54.273Z,17.44
2022-09-24T11:51:54.243Z,17.44
2022-09-24T11:52:54.252Z,17.42
2022-09-24T11:53:54.233Z,17.42
2022-09-24T11:54:54.213Z,17.39
2022-09-24T11:55:54.208Z,17.37
2022-09-24T11:56:54.194Z,17.34
2022-09-24T11:57:54.174Z,17.28
2022-09-24T11:58:54.181Z,17.24
2022-09-24T11:59:54.144Z,17.19
2022-09-24T12:00:54.134Z,17.14
2022-09-24T12:01:54.147Z,17.13
2022-09-24T12:02:54.208Z,17.09
2022-09-24T12:03:54.104Z,17.05
2022-09-24T12:04:54.074Z,17.05
2022-09-24T12:05:54.064Z,17.09
2022-09-24T12:06:54.053Z,17.09
2022-09-24T12:07:54.066Z,17.12
2022-09-24T12:08:54.037Z,17.10
2022-09-24T12:09:54.013Z,17.10
2022-09-24T12:10:53.996Z,17.12
2022-09-24T12:11:53.972Z,17.13
2022-09-24T12:12:53.975Z,17.14
2022-09-24T12:13:54.026Z,17.17
2022-09-24T12:14:53.946Z,17.22
2022-09-24T12:15:53.969Z,17.28
2022-09-24T12:16:53.936Z,17.34
2022-09-24T12:17:53.907Z,17.41
2022-09-24T12:18:53.916Z,17.49
2022-09-24T12:19:53.879Z,17.52
2022-09-24T12:20:53.867Z,17.49
2022-09-24T12:21:53.861Z,17.46
2022-09-24T12:22:53.846Z,17.42
2022-09-24T12:24:11.503Z,17.38
2022-09-24T12:24:54.825Z,17.38
2022-09-24T12:25:53.807Z,17.34
2022-09-24T12:26:53.788Z,17.32
2022-09-24T12:27:53.777Z,17.32
2022-09-24T12:28:53.777Z,17.30
2022-09-24T12:29:53.746Z,17.28
2022-09-24T12:30:53.825Z,17.20
2022-09-24T12:31:53.793Z,17.14
2022-09-24T12:32:53.705Z,17.12
2022-09-24T12:33:53.686Z,17.10
2022-09-24T12:34:53.677Z,17.13
2022-09-24T12:35:53.670Z,17.13
2022-09-24T12:36:56.954Z,17.16
2022-09-24T12:37:53.639Z,17.19
2022-09-24T12:38:53.648Z,17.22
2022-09-24T12:39:53.615Z,17.24
2022-09-24T12:40:53.674Z,17.30
2022-09-24T12:41:53.613Z,17.38
2022-09-24T12:42:53.578Z,17.47
2022-09-24T12:43:53.577Z,17.56
2022-09-24T12:44:53.551Z,17.72
2022-09-24T12:45:53.540Z,17.98
2022-09-24T12:46:53.584Z,18.02
2022-09-24T12:47:53.508Z,18.08
2022-09-24T12:48:53.530Z,18.19
2022-09-24T12:49:53.475Z,18.28
2022-09-24T12:50:53.469Z,18.27
2022-09-24T12:51:53.450Z,18.24
2022-09-24T12:52:53.450Z,18.16
2022-09-24T12:53:53.450Z,18.09
2022-09-24T12:54:53.419Z,18.05
2022-09-24T12:55:53.398Z,17.97
2022-09-24T12:56:53.389Z,17.93
2022-09-24T12:57:53.385Z,17.88
2022-09-24T12:58:53.382Z,17.86
2022-09-24T12:59:53.340Z,17.82
2022-09-24T13:00:53.345Z,17.79
2022-09-24T13:01:53.391Z,17.73
2022-09-24T13:02:53.423Z,17.71
2022-09-24T13:03:53.370Z,17.69
2022-09-24T13:04:53.279Z,17.68